sensor_id;sensor_type;location;lat;lon;timestamp;pressure;altitude;pressure_sealevel;temperature;humidity
85499;BME280;75903;52.510;13.396;2024-02-15T00:00:04;101229.13;;;11.13;87.95
85499;BME280;75903;52.510;13.396;2024-02-15T00:02:32;101218.19;;;11.17;86.79
85499;BME280;75903;52.510;13.396;2024-02-15T00:04:58;101222.41;;;11.20;87.13
85499;BME280;75903;52.510;13.396;2024-02-15T00:07:23;101214.25;;;11.12;87.19
85499;BME280;75903;52.510;13.396;2024-02-15T00:09:49;101229.84;;;11.15;87.27
85499;BME280;75903;52.510;13.396;2024-02-15T00:12:14;101225.06;;;11.09;87.08
85499;BME280;75903;52.510;13.396;2024-02-15T00:14:40;101220.25;;;11.14;87.27
85499;BME280;75903;52.510;13.396;2024-02-15T00:17:05;101215.94;;;11.13;87.76
85499;BME280;75903;52.510;13.396;2024-02-15T00:19:31;101221.09;;;11.14;87.15
85499;BME280;75903;52.510;13.396;2024-02-15T00:21:56;101218.81;;;11.21;87.11
85499;BME280;75903;52.510;13.396;2024-02-15T00:24:22;101218.19;;;11.17;87.61
85499;BME280;75903;52.510;13.396;2024-02-15T00:26:49;101225.66;;;11.12;87.70
85499;BME280;75903;52.510;13.396;2024-02-15T00:29:14;101223.84;;;11.13;87.32
85499;BME280;75903;52.510;13.396;2024-02-15T00:31:40;101216.88;;;11.12;87.06
85499;BME280;75903;52.510;13.396;2024-02-15T00:34:05;101230.66;;;11.15;87.85
85499;BME280;75903;52.510;13.396;2024-02-15T00:36:31;101219.78;;;11.20;87.43
85499;BME280;75903;52.510;13.396;2024-02-15T00:38:58;101213.78;;;11.18;87.20
85499;BME280;75903;52.510;13.396;2024-02-15T00:41:24;101216.78;;;11.24;87.08
85499;BME280;75903;52.510;13.396;2024-02-15T00:43:49;101222.19;;;11.23;87.38
85499;BME280;75903;52.510;13.396;2024-02-15T00:46:17;101221.22;;;11.24;87.02
85499;BME280;75903;52.510;13.396;2024-02-15T00:48:43;101226.34;;;11.25;86.73
85499;BME280;75903;52.510;13.396;2024-02-15T00:51:08;101223.59;;;11.16;87.78
85499;BME280;75903;52.510;13.396;2024-02-15T00:53:34;101223.72;;;11.14;87.24
85499;BME280;75903;52.510;13.396;2024-02-15T00:55:59;101223.38;;;11.19;87.18
85499;BME280;75903;52.510;13.396;2024-02-15T00:58:24;101220.13;;;11.26;86.91
85499;BME280;75903;52.510;13.396;2024-02-15T01:00:52;101219.41;;;11.24;87.19
85499;BME280;75903;52.510;13.396;2024-02-15T01:03:18;101222.19;;;11.23;87.31
85499;BME280;75903;52.510;13.396;2024-02-15T01:05:44;101197.94;;;11.18;86.94
85499;BME280;75903;52.510;13.396;2024-02-15T01:08:09;101217.13;;;11.20;87.79
85499;BME280;75903;52.510;13.396;2024-02-15T01:10:35;101217.38;;;11.28;87.36
85499;BME280;75903;52.510;13.396;2024-02-15T01:13:02;101222.66;;;11.28;87.58
85499;BME280;75903;52.510;13.396;2024-02-15T01:15:27;101203.94;;;11.20;88.25
85499;BME280;75903;52.510;13.396;2024-02-15T01:17:52;101219.28;;;11.26;88.27
85499;BME280;75903;52.510;13.396;2024-02-15T01:20:18;101201.06;;;11.12;88.06
85499;BME280;75903;52.510;13.396;2024-02-15T01:22:43;101216.41;;;11.18;88.00
85499;BME280;75903;52.510;13.396;2024-02-15T01:25:09;101208.13;;;11.11;89.04
85499;BME280;75903;52.510;13.396;2024-02-15T01:27:35;101216.16;;;11.10;88.96
85499;BME280;75903;52.510;13.396;2024-02-15T01:30:01;101207.78;;;11.05;89.03
85499;BME280;75903;52.510;13.396;2024-02-15T01:32:26;101214.75;;;11.17;88.62
85499;BME280;75903;52.510;13.396;2024-02-15T01:34:52;101218.47;;;11.14;89.15
85499;BME280;75903;52.510;13.396;2024-02-15T01:37:23;101220.25;;;11.03;89.21
85499;BME280;75903;52.510;13.396;2024-02-15T01:39:49;101183.78;;;10.86;89.35
85499;BME280;75903;52.510;13.396;2024-02-15T01:42:15;101211.63;;;11.01;89.74
85499;BME280;75903;52.510;13.396;2024-02-15T01:44:41;101202.50;;;10.94;89.67
85499;BME280;75903;52.510;13.396;2024-02-15T01:47:09;101216.06;;;11.00;89.95
85499;BME280;75903;52.510;13.396;2024-02-15T01:49:35;101216.91;;;11.01;90.10
85499;BME280;75903;52.510;13.396;2024-02-15T01:52:02;101210.06;;;10.98;90.24
85499;BME280;75903;52.510;13.396;2024-02-15T01:54:27;101207.91;;;10.92;90.31
85499;BME280;75903;52.510;13.396;2024-02-15T01:56:53;101201.19;;;10.88;90.81
85499;BME280;75903;52.510;13.396;2024-02-15T01:59:22;101189.78;;;10.88;90.48
85499;BME280;75903;52.510;13.396;2024-02-15T02:01:48;101203.97;;;11.09;90.07
85499;BME280;75903;52.510;13.396;2024-02-15T02:04:14;101195.31;;;11.07;90.03
85499;BME280;75903;52.510;13.396;2024-02-15T02:06:39;101203.97;;;11.09;89.85
85499;BME280;75903;52.510;13.396;2024-02-15T02:09:06;101199.50;;;11.09;89.81
85499;BME280;75903;52.510;13.396;2024-02-15T02:11:32;101200.84;;;11.15;89.90
85499;BME280;75903;52.510;13.396;2024-02-15T02:13:58;101203.97;;;11.09;89.90
85499;BME280;75903;52.510;13.396;2024-02-15T02:16:30;101188.13;;;11.09;89.49
85499;BME280;75903;52.510;13.396;2024-02-15T02:19:00;101199.88;;;11.16;89.52
85499;BME280;75903;52.510;13.396;2024-02-15T02:21:27;101187.75;;;11.13;89.05
85499;BME280;75903;52.510;13.396;2024-02-15T02:23:56;101198.66;;;11.20;89.29
85499;BME280;75903;52.510;13.396;2024-02-15T02:26:22;101207.44;;;11.20;89.64
85499;BME280;75903;52.510;13.396;2024-02-15T02:28:48;101199.00;;;11.15;89.34
85499;BME280;75903;52.510;13.396;2024-02-15T02:31:14;101194.84;;;11.13;89.46
85499;BME280;75903;52.510;13.396;2024-02-15T02:33:43;101196.28;;;11.17;89.61
85499;BME280;75903;52.510;13.396;2024-02-15T02:36:12;101199.75;;;11.06;89.65
85499;BME280;75903;52.510;13.396;2024-02-15T02:38:37;101194.59;;;11.16;89.88
85499;BME280;75903;52.510;13.396;2024-02-15T02:41:06;101197.56;;;11.11;89.90
85499;BME280;75903;52.510;13.396;2024-02-15T02:43:31;101194.47;;;11.06;89.88
85499;BME280;75903;52.510;13.396;2024-02-15T02:45:57;101203.09;;;11.08;90.03
85499;BME280;75903;52.510;13.396;2024-02-15T02:48:22;101207.31;;;11.11;90.33
85499;BME280;75903;52.510;13.396;2024-02-15T02:50:48;101187.88;;;11.12;89.61
85499;BME280;75903;52.510;13.396;2024-02-15T02:53:14;101201.44;;;11.18;89.55
85499;BME280;75903;52.510;13.396;2024-02-15T02:55:43;101180.56;;;11.04;89.27
85499;BME280;75903;52.510;13.396;2024-02-15T02:58:08;101163.53;;;10.97;90.12
85499;BME280;75903;52.510;13.396;2024-02-15T03:00:34;101199.28;;;11.12;89.66
85499;BME280;75903;52.510;13.396;2024-02-15T03:02:59;101198.56;;;11.10;90.03
85499;BME280;75903;52.510;13.396;2024-02-15T03:05:26;101193.88;;;11.14;89.82
85499;BME280;75903;52.510;13.396;2024-02-15T03:07:51;101176.38;;;11.02;89.98
85499;BME280;75903;52.510;13.396;2024-02-15T03:10:17;101200.34;;;11.21;89.94
85499;BME280;75903;52.510;13.396;2024-02-15T03:12:44;101197.72;;;11.21;89.43
85499;BME280;75903;52.510;13.396;2024-02-15T03:15:13;101198.19;;;11.15;89.63
85499;BME280;75903;52.510;13.396;2024-02-15T03:17:43;101190.03;;;11.18;90.02
85499;BME280;75903;52.510;13.396;2024-02-15T03:20:11;101191.72;;;11.19;89.67
85499;BME280;75903;52.510;13.396;2024-02-15T03:25:22;101192.66;;;11.18;89.82
85499;BME280;75903;52.510;13.396;2024-02-15T03:27:50;101203.94;;;11.20;90.08
85499;BME280;75903;52.510;13.396;2024-02-15T03:30:17;101203.47;;;11.26;89.66
85499;BME280;75903;52.510;13.396;2024-02-15T03:32:44;101200.22;;;11.22;89.96
85499;BME280;75903;52.510;13.396;2024-02-15T03:35:10;101193.63;;;11.28;89.54
85499;BME280;75903;52.510;13.396;2024-02-15T03:37:40;101184.13;;;11.25;89.67
85499;BME280;75903;52.510;13.396;2024-02-15T03:40:05;101192.66;;;11.29;90.00
85499;BME280;75903;52.510;13.396;2024-02-15T03:42:31;101196.84;;;11.31;90.17
85499;BME280;75903;52.510;13.396;2024-02-15T03:44:56;101191.94;;;11.27;90.02
85499;BME280;75903;52.510;13.396;2024-02-15T03:47:22;101206.47;;;11.32;89.79
85499;BME280;75903;52.510;13.396;2024-02-15T03:49:48;101194.22;;;11.31;90.09
85499;BME280;75903;52.510;13.396;2024-02-15T03:52:13;101200.47;;;11.30;90.43
85499;BME280;75903;52.510;13.396;2024-02-15T03:54:38;101194.59;;;11.16;90.84
85499;BME280;75903;52.510;13.396;2024-02-15T03:57:04;101191.09;;;11.15;90.48
85499;BME280;75903;52.510;13.396;2024-02-15T03:59:31;101203.72;;;11.23;90.63
85499;BME280;75903;52.510;13.396;2024-02-15T04:01:57;101207.06;;;11.25;90.72
85499;BME280;75903;52.510;13.396;2024-02-15T04:04:23;101197.09;;;11.28;90.27
85499;BME280;75903;52.510;13.396;2024-02-15T04:06:52;101191.69;;;11.30;90.13
85499;BME280;75903;52.510;13.396;2024-02-15T04:09:17;101195.78;;;11.34;89.99
85499;BME280;75903;52.510;13.396;2024-02-15T04:11:47;101197.44;;;11.35;89.86
85499;BME280;75903;52.510;13.396;2024-02-15T04:14:16;101188.56;;;11.36;90.60
85499;BME280;75903;52.510;13.396;2024-02-15T04:16:43;101198.44;;;11.23;90.54
85499;BME280;75903;52.510;13.396;2024-02-15T04:19:09;101143.53;;;10.95;89.70
85499;BME280;75903;52.510;13.396;2024-02-15T04:21:35;101207.53;;;11.30;90.36
85499;BME280;75903;52.510;13.396;2024-02-15T04:24:00;101197.91;;;11.29;90.35
85499;BME280;75903;52.510;13.396;2024-02-15T04:26:25;101195.06;;;11.32;90.75
85499;BME280;75903;52.510;13.396;2024-02-15T04:28:53;101174.06;;;11.19;90.53
85499;BME280;75903;52.510;13.396;2024-02-15T04:31:19;101196.72;;;11.33;90.65
85499;BME280;75903;52.510;13.396;2024-02-15T04:33:45;101191.56;;;11.31;90.40
85499;BME280;75903;52.510;13.396;2024-02-15T04:36:14;101195.06;;;11.32;90.52
85499;BME280;75903;52.510;13.396;2024-02-15T04:38:40;101195.06;;;11.32;89.81
85499;BME280;75903;52.510;13.396;2024-02-15T04:41:06;101191.66;;;11.41;90.21
85499;BME280;75903;52.510;13.396;2024-02-15T04:43:33;101195.78;;;11.34;90.20
85499;BME280;75903;52.510;13.396;2024-02-15T04:46:00;101194.09;;;11.44;89.50
85499;BME280;75903;52.510;13.396;2024-02-15T04:48:26;101194.66;;;11.48;89.64
85499;BME280;75903;52.510;13.396;2024-02-15T04:50:52;101199.59;;;11.52;88.82
85499;BME280;75903;52.510;13.396;2024-02-15T04:53:19;101196.59;;;11.46;89.47
85499;BME280;75903;52.510;13.396;2024-02-15T04:55:46;101196.59;;;11.46;89.50
85499;BME280;75903;52.510;13.396;2024-02-15T04:58:11;101195.75;;;11.45;89.95
85499;BME280;75903;52.510;13.396;2024-02-15T05:00:36;101191.91;;;11.49;89.58
85499;BME280;75903;52.510;13.396;2024-02-15T05:03:03;101185.44;;;11.42;89.22
85499;BME280;75903;52.510;13.396;2024-02-15T05:05:29;101195.75;;;11.56;89.19
85499;BME280;75903;52.510;13.396;2024-02-15T05:07:54;101195.25;;;11.51;89.00
85499;BME280;75903;52.510;13.396;2024-02-15T05:10:20;101186.63;;;11.49;89.64
85499;BME280;75903;52.510;13.396;2024-02-15T05:12:45;101208.34;;;11.53;89.61
85499;BME280;75903;52.510;13.396;2024-02-15T05:15:15;101205.72;;;11.42;89.93
85499;BME280;75903;52.510;13.396;2024-02-15T05:17:42;101202.63;;;11.37;90.53
85499;BME280;75903;52.510;13.396;2024-02-15T05:20:10;101205.13;;;11.38;90.58
85499;BME280;75903;52.510;13.396;2024-02-15T05:22:39;101209.66;;;11.47;90.06
85499;BME280;75903;52.510;13.396;2024-02-15T05:25:08;101205.81;;;11.51;90.17
85499;BME280;75903;52.510;13.396;2024-02-15T05:27:34;101188.66;;;11.46;89.23
85499;BME280;75903;52.510;13.396;2024-02-15T05:30:02;101213.25;;;11.57;89.43
85499;BME280;75903;52.510;13.396;2024-02-15T05:32:32;101212.28;;;11.58;89.07
85499;BME280;75903;52.510;13.396;2024-02-15T05:34:57;101201.47;;;11.61;89.51
85499;BME280;75903;52.510;13.396;2024-02-15T05:37:22;101207.72;;;11.60;89.44
85499;BME280;75903;52.510;13.396;2024-02-15T05:39:48;101202.94;;;11.54;89.83
85499;BME280;75903;52.510;13.396;2024-02-15T05:42:18;101207.03;;;11.58;89.25
85499;BME280;75903;52.510;13.396;2024-02-15T05:44:44;101206.53;;;11.64;89.19
85499;BME280;75903;52.510;13.396;2024-02-15T05:47:11;101202.72;;;11.68;88.80
85499;BME280;75903;52.510;13.396;2024-02-15T05:49:36;101201.88;;;11.68;89.16
85499;BME280;75903;52.510;13.396;2024-02-15T05:52:02;101207.88;;;11.59;89.47
85499;BME280;75903;52.510;13.396;2024-02-15T05:54:27;101210.28;;;11.51;90.12
85499;BME280;75903;52.510;13.396;2024-02-15T05:56:53;101214.44;;;11.53;89.51
85499;BME280;75903;52.510;13.396;2024-02-15T05:59:20;101213.38;;;11.56;89.70
85499;BME280;75903;52.510;13.396;2024-02-15T06:01:46;101213.38;;;11.56;90.33
85499;BME280;75903;52.510;13.396;2024-02-15T06:04:14;101214.53;;;11.63;89.15
85499;BME280;75903;52.510;13.396;2024-02-15T06:06:40;101210.59;;;11.57;89.49
85499;BME280;75903;52.510;13.396;2024-02-15T06:09:05;101196.69;;;11.55;89.66
85499;BME280;75903;52.510;13.396;2024-02-15T06:11:30;101204.97;;;11.62;89.35
85499;BME280;75903;52.510;13.396;2024-02-15T06:13:56;101206.53;;;11.64;89.20
85499;BME280;75903;52.510;13.396;2024-02-15T06:16:23;101213.72;;;11.62;89.63
85499;BME280;75903;52.510;13.396;2024-02-15T06:18:49;101210.84;;;11.65;89.25
85499;BME280;75903;52.510;13.396;2024-02-15T06:21:15;101216.38;;;11.73;89.85
85499;BME280;75903;52.510;13.396;2024-02-15T06:23:40;101210.25;;;12.04;89.52
85499;BME280;75903;52.510;13.396;2024-02-15T06:26:05;101190.44;;;12.31;86.63
85499;BME280;75903;52.510;13.396;2024-02-15T06:28:31;101214.56;;;12.58;86.46
85499;BME280;75903;52.510;13.396;2024-02-15T06:31:15;101218.38;;;12.65;85.42
85499;BME280;75903;52.510;13.396;2024-02-15T06:33:59;101216.50;;;12.56;85.76
85499;BME280;75903;52.510;13.396;2024-02-15T06:36:48;101233.22;;;12.36;85.75
85499;BME280;75903;52.510;13.396;2024-02-15T06:39:33;101234.84;;;12.16;86.82
85499;BME280;75903;52.510;13.396;2024-02-15T06:42:08;101227.81;;;12.05;87.21
85499;BME280;75903;52.510;13.396;2024-02-15T06:44:34;101230.94;;;11.99;88.13
85499;BME280;75903;52.510;13.396;2024-02-15T06:47:00;101234.78;;;11.95;88.48
85499;BME280;75903;52.510;13.396;2024-02-15T06:49:26;101237.78;;;12.02;87.86
85499;BME280;75903;52.510;13.396;2024-02-15T06:51:52;101235.25;;;12.00;87.58
85499;BME280;75903;52.510;13.396;2024-02-15T06:54:17;101236.09;;;12.01;88.03
85499;BME280;75903;52.510;13.396;2024-02-15T06:56:44;101241.88;;;11.95;88.78
85499;BME280;75903;52.510;13.396;2024-02-15T06:59:11;101240.06;;;11.95;88.44
85499;BME280;75903;52.510;13.396;2024-02-15T07:01:41;101247.88;;;11.97;87.70
85499;BME280;75903;52.510;13.396;2024-02-15T07:04:07;101250.28;;;11.89;88.66
85499;BME280;75903;52.510;13.396;2024-02-15T07:06:33;101249.47;;;11.88;88.03
85499;BME280;75903;52.510;13.396;2024-02-15T07:09:00;101256.28;;;11.91;88.07
85499;BME280;75903;52.510;13.396;2024-02-15T07:11:25;101258.81;;;11.92;87.84
85499;BME280;75903;52.510;13.396;2024-02-15T07:13:51;101251.59;;;11.94;88.31
85499;BME280;75903;52.510;13.396;2024-02-15T07:16:19;101257.00;;;11.93;88.25
85499;BME280;75903;52.510;13.396;2024-02-15T07:18:45;101250.28;;;11.89;88.63
85499;BME280;75903;52.510;13.396;2024-02-15T07:21:11;101257.13;;;11.91;88.86
85499;BME280;75903;52.510;13.396;2024-02-15T07:23:39;101238.56;;;11.82;88.40
85499;BME280;75903;52.510;13.396;2024-02-15T07:26:06;101257.00;;;11.93;88.56
85499;BME280;75903;52.510;13.396;2024-02-15T07:28:37;101257.34;;;11.99;87.96
85499;BME280;75903;52.510;13.396;2024-02-15T07:31:02;101246.66;;;12.01;88.35
85499;BME280;75903;52.510;13.396;2024-02-15T07:33:28;101255.88;;;12.06;88.38
85499;BME280;75903;52.510;13.396;2024-02-15T07:35:54;101256.72;;;12.07;87.63
85499;BME280;75903;52.510;13.396;2024-02-15T07:38:20;101255.88;;;12.06;88.12
85499;BME280;75903;52.510;13.396;2024-02-15T07:40:48;101237.16;;;11.98;87.73
85499;BME280;75903;52.510;13.396;2024-02-15T07:43:14;101246.28;;;12.05;87.94
85499;BME280;75903;52.510;13.396;2024-02-15T07:45:39;101247.72;;;12.09;87.36
85499;BME280;75903;52.510;13.396;2024-02-15T07:48:05;101252.63;;;12.14;87.32
85499;BME280;75903;52.510;13.396;2024-02-15T07:50:31;101253.94;;;12.19;87.74
85499;BME280;75903;52.510;13.396;2024-02-15T07:52:56;101253.22;;;12.17;87.45
85499;BME280;75903;52.510;13.396;2024-02-15T07:55:22;101251.88;;;12.23;87.54
85499;BME280;75903;52.510;13.396;2024-02-15T07:57:52;101250.53;;;12.29;87.43
85499;BME280;75903;52.510;13.396;2024-02-15T08:00:18;101255.06;;;12.38;87.60
85499;BME280;75903;52.510;13.396;2024-02-15T08:02:43;101256.50;;;12.42;86.95
85499;BME280;75903;52.510;13.396;2024-02-15T08:05:10;101253.72;;;12.43;86.74
85499;BME280;75903;52.510;13.396;2024-02-15T08:07:43;101252.72;;;12.44;86.94
85499;BME280;75903;52.510;13.396;2024-02-15T08:10:16;101261.88;;;12.40;87.07
85499;BME280;75903;52.510;13.396;2024-02-15T08:12:45;101252.72;;;12.44;86.39
85499;BME280;75903;52.510;13.396;2024-02-15T08:15:11;101247.84;;;12.40;87.50
85499;BME280;75903;52.510;13.396;2024-02-15T08:17:42;101258.53;;;12.38;87.62
85499;BME280;75903;52.510;13.396;2024-02-15T08:20:11;101256.72;;;12.39;86.94
85499;BME280;75903;52.510;13.396;2024-02-15T08:22:37;101253.94;;;12.40;87.31
85499;BME280;75903;52.510;13.396;2024-02-15T08:25:15;101257.91;;;12.46;86.96
85499;BME280;75903;52.510;13.396;2024-02-15T08:27:42;101262.22;;;12.47;86.92
85499;BME280;75903;52.510;13.396;2024-02-15T08:30:12;101236.66;;;12.36;86.34
85499;BME280;75903;52.510;13.396;2024-02-15T08:32:38;101264.16;;;12.45;86.83
85499;BME280;75903;52.510;13.396;2024-02-15T08:35:05;101272.56;;;12.50;86.86
85499;BME280;75903;52.510;13.396;2024-02-15T08:37:32;101251.19;;;12.42;86.88
85499;BME280;75903;52.510;13.396;2024-02-15T08:39:59;101263.41;;;12.54;86.94
85499;BME280;75903;52.510;13.396;2024-02-15T08:42:25;101262.69;;;12.52;86.67
85499;BME280;75903;52.510;13.396;2024-02-15T08:44:50;101264.34;;;12.53;86.62
85499;BME280;75903;52.510;13.396;2024-02-15T08:47:16;101258.94;;;12.54;86.59
85499;BME280;75903;52.510;13.396;2024-02-15T08:49:42;101260.50;;;12.57;87.10
85499;BME280;75903;52.510;13.396;2024-02-15T08:52:07;101261.34;;;12.57;86.12
85499;BME280;75903;52.510;13.396;2024-02-15T08:54:35;101260.41;;;12.47;86.77
85499;BME280;75903;52.510;13.396;2024-02-15T08:57:04;101260.50;;;12.57;87.19
85499;BME280;75903;52.510;13.396;2024-02-15T08:59:29;101254.81;;;12.61;85.79
85499;BME280;75903;52.510;13.396;2024-02-15T09:01:55;101264.47;;;12.72;85.56
85499;BME280;75903;52.510;13.396;2024-02-15T09:04:22;101258.41;;;12.60;86.28
85499;BME280;75903;52.510;13.396;2024-02-15T09:06:50;101263.78;;;12.70;86.42
85499;BME280;75903;52.510;13.396;2024-02-15T09:09:16;101258.94;;;12.75;85.61
85499;BME280;75903;52.510;13.396;2024-02-15T09:11:41;101263.44;;;12.84;85.57
85499;BME280;75903;52.510;13.396;2024-02-15T09:14:07;101257.34;;;12.83;86.15
85499;BME280;75903;52.510;13.396;2024-02-15T09:16:35;101253.75;;;12.94;85.57
85499;BME280;75903;52.510;13.396;2024-02-15T09:19:01;101252.66;;;12.96;85.70
85499;BME280;75903;52.510;13.396;2024-02-15T09:21:27;101260.47;;;12.98;85.40
85499;BME280;75903;52.510;13.396;2024-02-15T09:23:54;101249.97;;;12.87;85.25
85499;BME280;75903;52.510;13.396;2024-02-15T09:26:20;101267.19;;;13.02;85.67
85499;BME280;75903;52.510;13.396;2024-02-15T09:28:45;101271.13;;;13.07;85.04
85499;BME280;75903;52.510;13.396;2024-02-15T09:31:14;101269.34;;;13.08;85.06
85499;BME280;75903;52.510;13.396;2024-02-15T09:33:40;101257.78;;;13.09;84.25
85499;BME280;75903;52.510;13.396;2024-02-15T09:36:05;101238.34;;;12.99;85.02
85499;BME280;75903;52.510;13.396;2024-02-15T09:38:31;101262.09;;;13.10;85.16
85499;BME280;75903;52.510;13.396;2024-02-15T09:40:56;101268.63;;;13.06;84.91
85499;BME280;75903;52.510;13.396;2024-02-15T09:43:22;101272.28;;;12.94;85.75
85499;BME280;75903;52.510;13.396;2024-02-15T09:45:51;101271.75;;;13.00;85.16
85499;BME280;75903;52.510;13.396;2024-02-15T09:48:16;101276.91;;;13.01;85.87
85499;BME280;75903;52.510;13.396;2024-02-15T09:50:44;101274.16;;;13.03;85.42
85499;BME280;75903;52.510;13.396;2024-02-15T09:53:11;101282.56;;;13.08;85.31
85499;BME280;75903;52.510;13.396;2024-02-15T09:55:39;101284.66;;;13.04;84.83
85499;BME280;75903;52.510;13.396;2024-02-15T09:58:07;101289.81;;;13.06;85.83
85499;BME280;75903;52.510;13.396;2024-02-15T10:00:33;101279.22;;;13.06;84.88
85499;BME280;75903;52.510;13.396;2024-02-15T10:03:01;101283.66;;;13.05;85.68
85499;BME280;75903;52.510;13.396;2024-02-15T10:05:28;101290.25;;;13.11;84.55
85499;BME280;75903;52.510;13.396;2024-02-15T10:07:53;101290.69;;;13.16;84.48
85499;BME280;75903;52.510;13.396;2024-02-15T10:12:55;101276.56;;;13.27;84.92
85499;BME280;75903;52.510;13.396;2024-02-15T10:17:56;101282.13;;;13.33;84.63
85499;BME280;75903;52.510;13.396;2024-02-15T10:20:22;101274.09;;;13.35;84.43
85499;BME280;75903;52.510;13.396;2024-02-15T10:22:51;101278.78;;;13.31;84.16
85499;BME280;75903;52.510;13.396;2024-02-15T10:25:16;101273.78;;;13.38;84.47
85499;BME280;75903;52.510;13.396;2024-02-15T10:27:42;101278.94;;;13.39;84.33
85499;BME280;75903;52.510;13.396;2024-02-15T10:30:21;101287.03;;;13.38;84.32
85499;BME280;75903;52.510;13.396;2024-02-15T10:32:57;101279.41;;;13.44;84.43
85499;BME280;75903;52.510;13.396;2024-02-15T10:35:23;101277.00;;;13.41;84.37
85499;BME280;75903;52.510;13.396;2024-02-15T10:37:49;101268.28;;;13.50;85.06
85499;BME280;75903;52.510;13.396;2024-02-15T10:40:21;101272.75;;;13.59;83.88
85499;BME280;75903;52.510;13.396;2024-02-15T10:42:51;101268.03;;;13.63;84.20
85499;BME280;75903;52.510;13.396;2024-02-15T10:45:17;101253.81;;;13.54;83.68
85499;BME280;75903;52.510;13.396;2024-02-15T10:47:46;101261.47;;;13.57;83.97
85499;BME280;75903;52.510;13.396;2024-02-15T10:50:13;101270.56;;;13.64;83.33
85499;BME280;75903;52.510;13.396;2024-02-15T10:52:47;101269.88;;;13.62;84.22
85499;BME280;75903;52.510;13.396;2024-02-15T10:55:33;101281.19;;;13.74;83.70
85499;BME280;75903;52.510;13.396;2024-02-15T10:58:01;101269.63;;;13.84;83.33
85499;BME280;75903;52.510;13.396;2024-02-15T11:00:34;101274.50;;;13.79;82.75
85499;BME280;75903;52.510;13.396;2024-02-15T11:03:07;101280.66;;;13.89;83.55
85499;BME280;75903;52.510;13.396;2024-02-15T11:05:36;101271.31;;;13.85;83.27
85499;BME280;75903;52.510;13.396;2024-02-15T11:08:05;101273.28;;;13.93;83.01
85499;BME280;75903;52.510;13.396;2024-02-15T11:10:32;101275.81;;;14.04;83.18
85499;BME280;75903;52.510;13.396;2024-02-15T11:12:59;101264.94;;;14.07;82.90
85499;BME280;75903;52.510;13.396;2024-02-15T11:15:41;101258.81;;;14.26;82.59
85499;BME280;75903;52.510;13.396;2024-02-15T11:18:07;101267.63;;;14.45;82.52
85499;BME280;75903;52.510;13.396;2024-02-15T11:23:02;101255.91;;;14.48;81.32
85499;BME280;75903;52.510;13.396;2024-02-15T11:25:33;101253.94;;;14.50;81.73
85499;BME280;75903;52.510;13.396;2024-02-15T11:30:48;101242.78;;;14.37;81.43
85499;BME280;75903;52.510;13.396;2024-02-15T11:33:29;101257.28;;;14.42;82.01
85499;BME280;75903;52.510;13.396;2024-02-15T11:36:12;101257.59;;;14.39;81.47
85499;BME280;75903;52.510;13.396;2024-02-15T11:38:38;101247.25;;;14.36;81.09
85499;BME280;75903;52.510;13.396;2024-02-15T11:41:09;101255.78;;;14.40;81.42
85499;BME280;75903;52.510;13.396;2024-02-15T11:43:45;101255.50;;;14.33;81.50
85499;BME280;75903;52.510;13.396;2024-02-15T11:46:18;101256.75;;;14.29;81.76
85499;BME280;75903;52.510;13.396;2024-02-15T11:48:52;101243.16;;;14.23;81.81
85499;BME280;75903;52.510;13.396;2024-02-15T11:51:28;101259.53;;;14.28;82.34
85499;BME280;75903;52.510;13.396;2024-02-15T11:54:04;101259.47;;;14.18;82.76
85499;BME280;75903;52.510;13.396;2024-02-15T11:56:53;101240.81;;;14.20;82.19
85499;BME280;75903;52.510;13.396;2024-02-15T11:59:42;101258.38;;;14.21;82.82
85499;BME280;75903;52.510;13.396;2024-02-15T12:02:19;101252.22;;;14.20;83.15
85499;BME280;75903;52.510;13.396;2024-02-15T12:05:05;101246.22;;;14.18;82.38
85499;BME280;75903;52.510;13.396;2024-02-15T12:07:48;101254.09;;;14.29;83.57
85499;BME280;75903;52.510;13.396;2024-02-15T12:10:32;101257.03;;;14.55;82.59
85499;BME280;75903;52.510;13.396;2024-02-15T12:13:19;101228.38;;;14.77;80.72
85499;BME280;75903;52.510;13.396;2024-02-15T12:16:15;101238.63;;;15.09;79.21
85499;BME280;75903;52.510;13.396;2024-02-15T12:18:59;101236.81;;;15.00;78.92
85499;BME280;75903;52.510;13.396;2024-02-15T12:21:26;101236.59;;;14.74;80.07
85499;BME280;75903;52.510;13.396;2024-02-15T12:23:53;101234.94;;;14.64;80.36
85499;BME280;75903;52.510;13.396;2024-02-15T12:26:19;101228.66;;;14.65;81.16
85499;BME280;75903;52.510;13.396;2024-02-15T12:28:50;101225.00;;;14.66;81.12
85499;BME280;75903;52.510;13.396;2024-02-15T12:31:16;101231.59;;;14.62;81.41
85499;BME280;75903;52.510;13.396;2024-02-15T12:33:42;101226.28;;;14.62;80.99
85499;BME280;75903;52.510;13.396;2024-02-15T12:36:08;101213.31;;;14.49;80.94
85499;BME280;75903;52.510;13.396;2024-02-15T12:38:34;101221.97;;;14.61;80.85
85499;BME280;75903;52.510;13.396;2024-02-15T12:41:03;101226.28;;;14.62;81.31
85499;BME280;75903;52.510;13.396;2024-02-15T12:43:29;101214.13;;;14.69;80.22
85499;BME280;75903;52.510;13.396;2024-02-15T12:45:55;101210.63;;;14.68;80.74
85499;BME280;75903;52.510;13.396;2024-02-15T12:48:22;101194.44;;;14.62;80.46
85499;BME280;75903;52.510;13.396;2024-02-15T12:50:47;101209.22;;;14.74;79.73
85499;BME280;75903;52.510;13.396;2024-02-15T12:53:20;101203.09;;;14.73;80.24
85499;BME280;75903;52.510;13.396;2024-02-15T12:55:52;101203.34;;;14.80;79.98